Time;durP1;ratioP1;P1;durP2;ratioP2;P2;SDS_P1;SDS_P2;PMS_P1;PMS_P2;Temp;Humidity;BMP_temperature;BMP_pressure;BME280_temperature;BME280_humidity;BME280_pressure;Samples;Min_cycle;Max_cycle;Signal;HPM_P1;HPM_P2
2022/08/19 00:00:31;;;;;;;20.43;10.90;;;21.50;99.90;;;;;;4416401;28;655697;-68
2022/08/19 00:03:18;;;;;;;22.60;11.07;;;21.50;99.90;;;;;;4446017;28;656119;-68
2022/08/19 00:06:05;;;;;;;12.83;10.50;;;21.40;99.90;;;;;;4428313;28;656115;-68
2022/08/19 00:08:52;;;;;;;19.50;11.60;;;21.40;99.90;;;;;;4437964;28;656631;-68
2022/08/19 00:11:40;;;;;;;17.20;11.33;;;21.30;99.90;;;;;;4438214;28;655439;-68
2022/08/19 00:14:31;;;;;;;20.80;11.57;;;21.40;99.90;;;;;;4450552;28;658561;-68
2022/08/19 00:17:18;;;;;;;14.97;11.00;;;21.30;99.90;;;;;;4423430;28;655768;-68
2022/08/19 00:20:06;;;;;;;18.13;11.87;;;21.30;99.90;;;;;;4419335;28;655236;-67
2022/08/19 00:22:54;;;;;;;15.17;10.80;;;21.20;99.90;;;;;;4433851;28;656404;-68
2022/08/19 00:25:41;;;;;;;16.43;11.43;;;21.20;99.90;;;;;;4427093;28;655758;-68
2022/08/19 00:28:28;;;;;;;17.02;11.73;;;21.10;99.90;;;;;;4443080;28;656525;-67
2022/08/19 00:31:17;;;;;;;17.63;11.50;;;20.90;99.90;;;;;;4429173;28;655474;-67
2022/08/19 00:34:04;;;;;;;16.63;11.57;;;20.90;99.90;;;;;;4442198;28;655589;-68
2022/08/19 00:36:51;;;;;;;14.53;11.30;;;20.90;99.90;;;;;;4411452;28;655756;-68
2022/08/19 00:39:38;;;;;;;20.87;10.83;;;20.90;99.90;;;;;;4442910;28;656496;-67
2022/08/19 00:42:28;;;;;;;19.07;11.77;;;21.00;99.90;;;;;;4425616;28;656149;-67
2022/08/19 00:45:17;;;;;;;19.17;11.90;;;21.00;99.90;;;;;;4431021;28;655438;-68
2022/08/19 00:48:06;;;;;;;19.33;11.70;;;21.00;99.90;;;;;;4436960;28;655503;-68
2022/08/19 00:50:55;;;;;;;20.07;11.83;;;21.00;99.90;;;;;;4419971;28;655762;-68
2022/08/19 00:53:43;;;;;;;18.40;11.13;;;21.00;99.90;;;;;;4407940;28;657783;-68
2022/08/19 00:56:30;;;;;;;19.60;11.70;;;20.90;99.90;;;;;;4427167;28;655496;-68
2022/08/19 00:59:17;;;;;;;18.70;11.17;;;20.80;99.90;;;;;;4446393;28;656146;-68
2022/08/19 01:02:05;;;;;;;15.77;11.37;;;20.80;99.90;;;;;;4439646;28;655413;-68
2022/08/19 01:04:54;;;;;;;15.47;11.57;;;20.80;99.90;;;;;;4444384;28;655680;-68
2022/08/19 01:07:41;;;;;;;16.90;11.40;;;20.70;99.90;;;;;;4418299;28;656920;-67
2022/08/19 01:10:29;;;;;;;18.30;11.40;;;20.60;99.90;;;;;;4449270;28;656216;-68
2022/08/19 01:13:17;;;;;;;18.63;11.43;;;20.50;99.90;;;;;;4427332;28;656483;-68
2022/08/19 01:16:07;;;;;;;17.37;10.87;;;20.40;99.90;;;;;;4438817;28;655672;-68
2022/08/19 01:18:54;;;;;;;19.73;11.23;;;20.40;99.90;;;;;;4415580;28;655654;-68
2022/08/19 01:21:44;;;;;;;17.87;11.27;;;20.30;99.90;;;;;;4416782;28;655190;-68
2022/08/19 01:24:33;;;;;;;23.13;11.53;;;20.20;99.90;;;;;;4426507;28;655633;-68
2022/08/19 01:27:20;;;;;;;15.23;11.20;;;20.10;99.90;;;;;;4413883;28;656086;-68
2022/08/19 01:30:08;;;;;;;16.63;10.87;;;20.10;99.90;;;;;;4443806;28;656824;-68
2022/08/19 01:32:55;;;;;;;15.07;11.60;;;20.10;99.90;;;;;;4416548;28;655671;-67
2022/08/19 01:35:43;;;;;;;18.13;11.70;;;20.20;99.90;;;;;;4442817;28;655534;-68
2022/08/19 01:38:31;;;;;;;14.07;11.10;;;20.20;99.90;;;;;;4430771;28;655453;-68
2022/08/19 01:41:20;;;;;;;17.83;11.57;;;20.20;99.90;;;;;;4445582;28;655616;-68
2022/08/19 01:44:07;;;;;;;15.63;11.47;;;20.20;99.90;;;;;;4410284;28;656716;-68
2022/08/19 01:46:54;;;;;;;15.87;10.97;;;20.10;99.90;;;;;;4436634;28;654854;-68
2022/08/19 01:49:42;;;;;;;18.13;11.50;;;20.10;99.90;;;;;;4416245;28;657214;-68
2022/08/19 01:52:29;;;;;;;17.33;12.07;;;20.10;99.90;;;;;;4446511;28;657543;-68
2022/08/19 01:55:17;;;;;;;14.30;10.47;;;20.00;99.90;;;;;;4428386;28;656661;-68
2022/08/19 01:58:06;;;;;;;15.40;11.10;;;20.10;99.90;;;;;;4441130;28;656569;-68
2022/08/19 02:00:53;;;;;;;13.77;10.67;;;20.10;99.90;;;;;;4413716;28;658615;-68
2022/08/19 02:03:40;;;;;;;15.90;11.60;;;20.10;99.90;;;;;;4408393;28;656850;-68
2022/08/19 02:06:28;;;;;;;16.43;11.23;;;20.00;99.90;;;;;;4434390;28;658580;-68
2022/08/19 02:09:16;;;;;;;17.55;10.73;;;20.00;99.90;;;;;;4424656;28;657001;-68
2022/08/19 02:12:04;;;;;;;14.70;11.60;;;20.00;99.90;;;;;;4440533;28;657985;-68
2022/08/19 02:14:52;;;;;;;18.10;11.27;;;20.00;99.90;;;;;;4416734;28;656600;-68
2022/08/19 02:17:39;;;;;;;16.20;11.27;;;20.00;99.90;;;;;;4436329;28;656838;-68
2022/08/19 02:20:26;;;;;;;17.70;10.50;;;20.00;99.90;;;;;;4419445;28;656941;-67
2022/08/19 02:23:14;;;;;;;19.00;11.47;;;20.00;99.90;;;;;;4437692;28;657307;-68
2022/08/19 02:26:01;;;;;;;14.60;10.83;;;19.90;99.90;;;;;;4417831;28;656529;-68
2022/08/19 02:28:48;;;;;;;20.23;11.27;;;19.90;99.90;;;;;;4440739;28;657447;-68
2022/08/19 02:31:37;;;;;;;14.00;11.50;;;20.00;99.90;;;;;;4422149;28;656533;-68
2022/08/19 02:34:24;;;;;;;14.30;10.93;;;20.00;99.90;;;;;;4442153;28;656459;-68
2022/08/19 02:38:25;;;;;;;13.93;11.30;;;20.00;99.90;;;;;;4415725;28;657067;-68
2022/08/19 02:40:19;;;;;;;15.73;11.10;;;20.00;99.90;;;;;;4408399;28;656853;-68
2022/08/19 02:43:08;;;;;;;14.90;11.23;;;20.00;99.90;;;;;;4421132;28;656559;-68
2022/08/19 02:45:55;;;;;;;18.97;11.17;;;20.00;99.90;;;;;;4416792;28;656303;-68
2022/08/19 02:48:44;;;;;;;19.23;11.70;;;20.00;99.90;;;;;;4431795;28;657586;-68
2022/08/19 02:51:32;;;;;;;14.30;10.60;;;19.80;99.90;;;;;;4419062;28;656504;-68
2022/08/19 02:54:19;;;;;;;15.97;11.17;;;19.70;99.90;;;;;;4442684;28;656816;-67
2022/08/19 02:57:07;;;;;;;14.50;10.93;;;19.70;99.90;;;;;;4427569;28;656883;-68
2022/08/19 02:59:54;;;;;;;18.27;11.63;;;19.70;99.90;;;;;;4443610;28;656913;-68
2022/08/19 03:02:41;;;;;;;12.43;10.53;;;19.60;99.90;;;;;;4418748;28;656722;-68
2022/08/19 03:05:30;;;;;;;16.37;11.37;;;19.60;99.90;;;;;;4442632;28;657255;-67
2022/08/19 03:08:17;;;;;;;17.20;10.40;;;19.60;99.90;;;;;;4415053;28;656817;-68
2022/08/19 03:11:04;;;;;;;18.13;11.63;;;19.60;99.90;;;;;;4445084;28;657058;-68
2022/08/19 03:13:53;;;;;;;18.10;10.93;;;19.60;99.90;;;;;;4419367;28;656575;-67
2022/08/19 03:16:42;;;;;;;18.70;11.60;;;19.50;99.90;;;;;;4429088;28;656981;-68
2022/08/19 03:19:29;;;;;;;23.43;11.40;;;19.60;99.90;;;;;;4446867;28;657145;-68
2022/08/19 03:22:18;;;;;;;16.00;11.77;;;19.50;99.90;;;;;;4414979;28;656686;-67
2022/08/19 03:25:06;;;;;;;16.93;11.17;;;19.60;99.90;;;;;;4415213;28;656511;-67
2022/08/19 03:27:53;;;;;;;16.20;11.53;;;19.70;99.90;;;;;;4438979;28;658498;-67
2022/08/19 03:30:40;;;;;;;18.80;11.27;;;19.70;99.90;;;;;;4430118;28;656386;-67
2022/08/19 03:33:28;;;;;;;17.70;11.03;;;19.80;99.90;;;;;;4446896;28;656582;-67
2022/08/19 03:36:16;;;;;;;17.50;11.83;;;19.80;99.90;;;;;;4427527;28;656710;-67
2022/08/19 03:39:05;;;;;;;15.30;11.60;;;19.80;99.90;;;;;;4434390;28;657552;-67
2022/08/19 03:41:52;;;;;;;17.17;11.23;;;19.90;99.90;;;;;;4411669;28;657531;-67
2022/08/19 03:44:42;;;;;;;20.50;11.63;;;19.90;99.90;;;;;;4434096;28;656971;-67
2022/08/19 03:47:30;;;;;;;17.60;11.10;;;20.00;99.90;;;;;;4439907;28;657732;-67
2022/08/19 03:50:19;;;;;;;17.30;11.23;;;20.00;99.90;;;;;;4423801;28;657900;-67
2022/08/19 03:53:06;;;;;;;17.63;11.83;;;20.10;99.90;;;;;;4418023;28;657095;-67
2022/08/19 03:55:54;;;;;;;15.98;11.77;;;20.20;99.90;;;;;;4439877;28;657013;-67
2022/08/19 03:58:41;;;;;;;16.47;11.30;;;20.20;99.90;;;;;;4408780;28;656455;-67
2022/08/19 04:01:29;;;;;;;16.97;10.87;;;20.20;99.90;;;;;;4444153;28;657104;-67
2022/08/19 04:04:16;;;;;;;14.97;11.43;;;20.20;99.90;;;;;;4424305;28;656572;-67
2022/08/19 04:07:03;;;;;;;16.10;11.17;;;20.10;99.90;;;;;;4442394;28;656770;-67
2022/08/19 04:09:51;;;;;;;18.80;11.20;;;20.10;99.90;;;;;;4419086;28;656848;-67
2022/08/19 04:12:40;;;;;;;19.30;11.60;;;20.10;99.90;;;;;;4446777;28;658074;-67
2022/08/19 04:15:28;;;;;;;15.60;10.93;;;20.20;99.90;;;;;;4413735;28;657107;-67
2022/08/19 04:18:15;;;;;;;17.93;11.37;;;20.30;99.90;;;;;;4424780;28;656349;-67
2022/08/19 04:21:03;;;;;;;15.47;11.43;;;20.30;99.90;;;;;;4441505;28;657654;-67
2022/08/19 04:23:50;;;;;;;15.40;10.83;;;20.30;99.90;;;;;;4428513;28;656622;-67
2022/08/19 04:26:38;;;;;;;14.07;10.65;;;20.40;99.90;;;;;;4445639;28;657209;-67
2022/08/19 04:29:27;;;;;;;12.57;10.23;;;20.60;99.90;;;;;;4424199;28;656076;-67
2022/08/19 04:32:15;;;;;;;14.03;10.80;;;20.70;99.90;;;;;;4444710;28;657101;-67
2022/08/19 04:35:02;;;;;;;18.77;10.17;;;20.80;99.90;;;;;;4416413;28;657326;-67
2022/08/19 04:37:49;;;;;;;17.50;10.43;;;20.80;99.90;;;;;;4430802;28;657088;-67
2022/08/19 04:43:47;;;;;;;12.83;10.30;;;21.10;99.90;;;;;;4400814;28;655659;-67
2022/08/19 04:46:35;;;;;;;18.60;10.30;;;21.30;99.90;;;;;;4442854;28;656789;-67
2022/08/19 04:49:23;;;;;;;17.40;10.87;;;21.50;99.90;;;;;;4421626;28;657622;-67
2022/08/19 04:52:10;;;;;;;16.95;10.82;;;21.60;99.90;;;;;;4428248;28;656701;-67
2022/08/19 04:54:57;;;;;;;14.07;10.00;;;21.80;99.90;;;;;;4442971;28;657160;-67
2022/08/19 04:57:44;;;;;;;15.13;9.87;;;21.90;99.90;;;;;;4436072;28;657183;-67
2022/08/19 05:00:31;;;;;;;15.37;9.83;;;22.10;99.90;;;;;;4427895;28;655471;-67
2022/08/19 05:03:20;;;;;;;14.93;9.57;;;22.30;99.90;;;;;;4443904;28;656606;-67
2022/08/19 05:06:08;;;;;;;13.00;9.67;;;22.50;99.90;;;;;;4419021;28;655891;-67
2022/08/19 05:08:55;;;;;;;18.03;10.33;;;22.70;99.90;;;;;;4427578;28;655833;-67
2022/08/19 05:11:43;;;;;;;16.37;9.33;;;22.90;99.90;;;;;;4440020;28;657953;-67
2022/08/19 05:14:30;;;;;;;15.57;10.40;;;23.10;99.90;;;;;;4433606;28;655911;-68
2022/08/19 05:17:17;;;;;;;15.87;9.90;;;23.30;99.90;;;;;;4442937;28;657839;-67
2022/08/19 05:23:14;;;;;;;14.10;10.10;;;23.70;99.90;;;;;;4422779;28;655641;-68
2022/08/19 05:26:01;;;;;;;16.57;10.47;;;23.80;99.90;;;;;;4416414;28;656540;-68
2022/08/19 05:28:48;;;;;;;15.60;10.77;;;23.90;99.90;;;;;;4438195;28;657145;-68
2022/08/19 05:31:36;;;;;;;16.37;11.93;;;24.00;99.90;;;;;;4420458;28;656767;-67
2022/08/19 05:34:25;;;;;;;22.80;13.13;;;24.10;99.90;;;;;;4448872;28;657791;-68
2022/08/19 05:37:14;;;;;;;24.70;13.47;;;24.20;99.90;;;;;;4417558;28;657203;-68
2022/08/19 05:40:01;;;;;;;23.60;12.68;;;24.20;99.90;;;;;;4393763;28;657154;-68
2022/08/19 05:42:49;;;;;;;20.53;11.67;;;24.40;99.90;;;;;;4422879;28;657254;-68
2022/08/19 05:45:39;;;;;;;23.07;10.80;;;24.60;99.90;;;;;;4399413;28;656458;-68
2022/08/19 05:48:26;;;;;;;15.05;10.20;;;24.70;99.90;;;;;;4395926;28;656657;-68
2022/08/19 05:51:13;;;;;;;16.10;10.27;;;24.90;99.90;;;;;;4415819;28;657319;-68
2022/08/19 05:54:01;;;;;;;11.75;9.77;;;25.10;99.90;;;;;;4396505;28;656329;-68
2022/08/19 05:56:49;;;;;;;13.85;9.02;;;25.30;99.90;;;;;;4416123;28;655800;-68
2022/08/19 05:59:36;;;;;;;14.30;9.25;;;25.40;99.90;;;;;;4402142;28;655435;-68
2022/08/19 06:02:23;;;;;;;13.27;9.15;;;25.50;99.90;;;;;;4421669;28;655523;-68
2022/08/19 06:05:11;;;;;;;13.63;8.88;;;25.70;99.90;;;;;;4400197;28;655531;-69
2022/08/19 06:07:58;;;;;;;11.73;8.80;;;25.60;99.90;;;;;;4414863;28;656504;-68
2022/08/19 06:10:47;;;;;;;15.70;9.05;;;25.60;99.90;;;;;;4395526;28;655988;-68
2022/08/19 06:13:34;;;;;;;15.90;8.57;;;25.70;99.90;;;;;;4434235;28;655932;-68
2022/08/19 06:16:22;;;;;;;15.85;8.95;;;25.50;99.90;;;;;;4419037;28;656082;-68
2022/08/19 06:19:09;;;;;;;13.80;8.60;;;25.70;99.90;;;;;;4426370;28;655364;-68
2022/08/19 06:21:57;;;;;;;11.40;8.85;;;25.70;99.90;;;;;;4406898;28;656950;-68
2022/08/19 06:24:45;;;;;;;15.65;8.85;;;25.80;99.90;;;;;;4426622;28;656185;-68
2022/08/19 06:27:34;;;;;;;13.88;8.70;;;25.90;99.90;;;;;;4427834;28;656633;-68
2022/08/19 06:30:21;;;;;;;12.05;8.30;;;26.00;99.90;;;;;;4414928;28;655572;-68
2022/08/19 06:33:08;;;;;;;15.02;8.70;;;26.10;99.90;;;;;;4427094;28;656540;-68
2022/08/19 06:35:55;;;;;;;14.63;8.85;;;26.10;99.90;;;;;;4401657;28;656513;-68
2022/08/19 06:38:42;;;;;;;14.07;7.95;;;26.20;99.90;;;;;;4424518;28;656906;-68
2022/08/19 06:41:30;;;;;;;14.07;9.20;;;26.40;99.90;;;;;;4421749;28;655221;-68
2022/08/19 06:44:19;;;;;;;12.95;8.70;;;26.50;99.90;;;;;;4403680;28;656129;-68
2022/08/19 06:47:06;;;;;;;11.32;8.25;;;26.70;99.90;;;;;;4397998;28;655852;-68
2022/08/19 06:49:55;;;;;;;17.95;8.23;;;26.80;99.90;;;;;;4416490;28;656168;-68
2022/08/19 06:52:42;;;;;;;13.32;8.45;;;26.90;99.90;;;;;;4401638;28;655613;-68
2022/08/19 06:55:30;;;;;;;12.57;8.23;;;27.20;99.90;;;;;;4417781;28;655825;-68
2022/08/19 06:58:17;;;;;;;14.15;7.82;;;27.20;99.90;;;;;;4400230;28;655118;-68
2022/08/19 07:01:06;;;;;;;12.60;7.90;;;27.40;99.90;;;;;;4413255;28;655786;-69
2022/08/19 07:03:53;;;;;;;13.05;8.23;;;27.70;99.90;;;;;;4392865;28;656315;-68
2022/08/19 07:06:40;;;;;;;13.02;8.15;;;28.00;99.90;;;;;;4394003;28;655763;-68
2022/08/19 07:09:27;;;;;;;17.83;8.43;;;28.10;99.10;;;;;;4422922;28;655726;-68
2022/08/19 07:12:15;;;;;;;10.82;7.70;;;28.10;97.60;;;;;;4413518;28;655792;-68
2022/08/19 07:15:03;;;;;;;11.32;8.45;;;27.90;96.60;;;;;;4423228;28;655664;-68
2022/08/19 07:17:51;;;;;;;12.57;8.27;;;27.90;97.70;;;;;;4415258;28;655621;-68
2022/08/19 07:20:39;;;;;;;11.25;8.23;;;28.20;98.20;;;;;;4418930;28;656040;-68
2022/08/19 07:23:26;;;;;;;15.10;8.70;;;28.30;97.90;;;;;;4400799;28;655827;-68
2022/08/19 07:26:18;;;;;;;13.85;8.48;;;28.50;98.90;;;;;;4417666;28;656611;-68
2022/08/19 07:29:06;;;;;;;10.55;7.90;;;28.70;97.00;;;;;;4371261;28;656140;-68
2022/08/19 07:31:56;;;;;;;14.88;8.13;;;29.10;97.20;;;;;;4421483;28;657002;-68
2022/08/19 07:34:45;;;;;;;19.75;8.10;;;29.30;96.30;;;;;;4396138;28;655958;-68
2022/08/19 07:37:32;;;;;;;14.05;8.15;;;29.50;95.30;;;;;;4403740;28;657265;-68
2022/08/19 07:40:19;;;;;;;19.90;8.65;;;29.40;94.30;;;;;;4420868;28;655755;-68
2022/08/19 07:43:06;;;;;;;21.30;9.02;;;29.50;95.60;;;;;;4407390;28;655276;-67
2022/08/19 07:45:55;;;;;;;16.42;8.90;;;29.50;94.70;;;;;;4434300;28;657287;-68
2022/08/19 07:48:45;;;;;;;13.38;9.13;;;29.60;97.00;;;;;;4414595;28;656485;-67
2022/08/19 07:51:33;;;;;;;13.52;7.97;;;29.80;94.80;;;;;;4405646;28;656233;-67
2022/08/19 07:54:21;;;;;;;14.55;8.52;;;30.10;93.00;;;;;;4411595;28;655541;-67
2022/08/19 07:57:08;;;;;;;14.65;8.82;;;30.10;90.90;;;;;;4428707;28;656312;-68
2022/08/19 07:59:55;;;;;;;20.40;14.55;;;30.60;91.40;;;;;;4398680;28;656143;-68
2022/08/19 08:02:43;;;;;;;16.25;8.32;;;30.60;90.50;;;;;;4417181;28;656685;-67
2022/08/19 08:11:42;;;;;;;18.05;8.18;;;31.60;85.10;;;;;;4371260;28;656001;-68
2022/08/19 08:14:30;;;;;;;12.27;8.23;;;31.60;82.40;;;;;;4419484;28;655372;-68
2022/08/19 08:17:20;;;;;;;12.63;8.40;;;31.20;83.30;;;;;;4400058;28;657469;-67
2022/08/19 08:20:08;;;;;;;15.43;8.20;;;30.90;87.70;;;;;;4397020;28;657260;-67
2022/08/19 08:26:03;;;;;;;18.63;8.85;;;30.50;88.40;;;;;;4383068;28;656750;-67
2022/08/19 08:28:50;;;;;;;16.30;9.02;;;30.60;91.00;;;;;;4400361;28;655576;-67
2022/08/19 08:31:37;;;;;;;12.97;9.20;;;30.80;90.40;;;;;;4423445;28;657587;-68
2022/08/19 08:34:24;;;;;;;16.92;9.15;;;30.70;90.80;;;;;;4425155;28;655736;-67
2022/08/19 08:37:11;;;;;;;20.55;9.48;;;30.90;91.10;;;;;;4404963;28;655439;-67
2022/08/19 08:39:59;;;;;;;31.67;8.50;;;31.20;90.40;;;;;;4437119;28;655376;-67
2022/08/19 08:42:51;;;;;;;16.42;8.23;;;31.60;86.10;;;;;;4419031;28;656449;-67
2022/08/19 08:45:42;;;;;;;12.50;8.48;;;31.80;85.40;;;;;;4407306;28;656046;-67
2022/08/19 08:48:35;;;;;;;14.77;7.97;;;32.30;85.00;;;;;;4417859;28;655883;-67
2022/08/19 08:51:26;;;;;;;16.08;8.00;;;32.80;78.70;;;;;;4407554;28;655923;-67
2022/08/19 08:54:14;;;;;;;13.57;7.65;;;32.70;73.10;;;;;;4393120;28;655932;-67
2022/08/19 08:57:03;;;;;;;20.70;8.23;;;32.80;74.10;;;;;;4396553;28;655871;-68
2022/08/19 08:59:52;;;;;;;16.20;6.35;;;33.30;73.60;;;;;;4417785;28;655866;-67
2022/08/19 09:02:39;;;;;;;11.77;6.60;;;33.50;67.90;;;;;;4419856;28;655296;-68
2022/08/19 09:05:27;;;;;;;11.05;6.68;;;33.60;72.40;;;;;;4404988;28;655413;-67
2022/08/19 09:08:17;;;;;;;11.25;6.78;;;34.00;66.30;;;;;;4409766;28;655659;-68
2022/08/19 09:11:07;;;;;;;12.82;6.05;;;33.30;65.50;;;;;;4395613;28;656209;-68
2022/08/19 09:14:03;;;;;;;14.05;6.13;;;33.50;63.30;;;;;;4419172;28;655434;-68
2022/08/19 09:16:52;;;;;;;12.90;6.37;;;33.60;66.40;;;;;;4380891;28;655663;-68
2022/08/19 09:19:49;;;;;;;15.52;7.18;;;33.80;64.50;;;;;;4413353;28;655645;-68
2022/08/19 09:22:37;;;;;;;14.80;7.23;;;34.40;67.10;;;;;;4378516;28;656739;-67
2022/08/19 09:25:24;;;;;;;15.07;6.70;;;34.30;64.10;;;;;;4431198;28;655421;-67
2022/08/19 09:28:11;;;;;;;20.20;6.43;;;34.40;61.70;;;;;;4402916;28;655386;-67
2022/08/19 09:30:58;;;;;;;15.98;6.55;;;34.70;60.30;;;;;;4425184;28;656922;-67
2022/08/19 09:33:47;;;;;;;12.73;6.25;;;34.70;58.20;;;;;;4400668;28;655697;-68
2022/08/19 09:36:35;;;;;;;9.98;5.13;;;34.80;60.00;;;;;;4419220;28;655723;-67
2022/08/19 09:39:22;;;;;;;11.80;5.78;;;34.10;58.70;;;;;;4396778;28;655000;-67
2022/08/19 09:42:11;;;;;;;13.48;4.88;;;33.90;55.20;;;;;;4423884;28;655446;-68
2022/08/19 09:44:59;;;;;;;16.10;5.18;;;34.10;55.10;;;;;;4422380;28;657276;-67
2022/08/19 09:47:46;;;;;;;13.43;5.78;;;34.50;54.70;;;;;;4398388;28;655478;-68
2022/08/19 09:50:38;;;;;;;10.35;4.55;;;34.90;55.30;;;;;;4420205;28;656626;-67
2022/08/19 09:53:25;;;;;;;11.27;4.85;;;35.40;50.70;;;;;;4378674;28;656443;-68
2022/08/19 09:56:12;;;;;;;12.70;5.10;;;35.60;52.20;;;;;;4417286;28;655744;-67
2022/08/19 09:59:00;;;;;;;8.90;4.35;;;35.50;50.00;;;;;;4422990;28;655779;-67
2022/08/19 10:01:47;;;;;;;11.43;5.03;;;35.30;53.60;;;;;;4414165;28;655190;-68
2022/08/19 10:07:40;;;;;;;10.68;5.13;;;35.90;53.00;;;;;;4390090;28;655866;-67
2022/08/19 10:10:28;;;;;;;13.93;5.32;;;35.80;50.40;;;;;;4392729;28;656214;-67
2022/08/19 10:13:16;;;;;;;15.65;4.97;;;36.00;53.10;;;;;;4397567;28;656204;-67
2022/08/19 10:16:05;;;;;;;10.52;5.22;;;35.50;49.80;;;;;;4420005;28;656287;-67
2022/08/19 10:18:52;;;;;;;12.35;4.80;;;34.40;51.40;;;;;;4402333;28;656933;-67
2022/08/19 10:21:40;;;;;;;12.77;5.07;;;34.10;53.40;;;;;;4423461;28;655578;-67
2022/08/19 10:24:28;;;;;;;20.77;5.65;;;34.10;52.40;;;;;;4399997;28;656965;-67
2022/08/19 10:27:15;;;;;;;15.15;4.85;;;34.30;54.30;;;;;;4404673;28;655492;-68
2022/08/19 10:30:02;;;;;;;14.20;5.40;;;35.10;54.40;;;;;;4431113;28;655421;-68
2022/08/19 10:32:50;;;;;;;11.48;5.10;;;35.60;52.80;;;;;;4429801;28;655423;-68
2022/08/19 10:35:37;;;;;;;12.27;4.40;;;36.10;52.30;;;;;;4430548;28;656097;-67
2022/08/19 10:38:24;;;;;;;11.38;4.55;;;35.80;50.60;;;;;;4426105;28;655608;-67
2022/08/19 10:41:14;;;;;;;13.50;4.50;;;35.70;51.90;;;;;;4404800;28;656801;-68
2022/08/19 10:44:05;;;;;;;14.00;4.63;;;36.10;50.40;;;;;;4407594;28;655860;-67
2022/08/19 10:46:52;;;;;;;14.98;5.30;;;36.10;48.60;;;;;;4413976;28;656140;-67
2022/08/19 10:52:33;;;;;;;12.40;4.15;;;36.50;49.70;;;;;;4431589;28;655610;-67
2022/08/19 10:52:46;;;;;;;11.53;4.70;;;36.70;47.30;;;;;;4388863;28;657314;-67
2022/08/19 10:58:41;;;;;;;11.65;4.35;;;36.00;50.00;;;;;;4400853;28;656152;-68
2022/08/19 11:01:29;;;;;;;11.52;4.97;;;36.30;48.60;;;;;;4409758;28;656666;-67
2022/08/19 11:04:17;;;;;;;14.70;4.63;;;36.30;49.10;;;;;;4405392;28;655575;-67
2022/08/19 11:07:04;;;;;;;29.75;5.03;;;36.80;47.00;;;;;;4424990;28;655048;-67
2022/08/19 11:09:51;;;;;;;11.03;4.53;;;36.70;48.20;;;;;;4414185;28;655853;-67
2022/08/19 11:12:39;;;;;;;15.13;4.95;;;36.90;49.90;;;;;;4413959;28;656802;-67
2022/08/19 11:15:28;;;;;;;11.10;4.70;;;37.10;46.80;;;;;;4413411;28;655529;-67
2022/08/19 11:18:16;;;;;;;13.18;5.13;;;36.70;46.80;;;;;;4414416;28;655706;-67
2022/08/19 11:21:08;;;;;;;13.82;4.93;;;36.70;48.60;;;;;;4433196;28;656077;-67
2022/08/19 11:23:56;;;;;;;15.23;5.10;;;36.90;48.00;;;;;;4390137;28;655802;-67
2022/08/19 11:26:44;;;;;;;14.77;4.57;;;37.10;46.80;;;;;;4430044;28;656972;-67
2022/08/19 11:29:32;;;;;;;17.83;4.90;;;37.20;46.60;;;;;;4409197;28;655693;-67
2022/08/19 11:32:20;;;;;;;14.82;4.93;;;37.70;48.50;;;;;;4422251;28;656981;-67
2022/08/19 11:35:08;;;;;;;10.02;4.60;;;37.60;46.30;;;;;;4401398;28;656178;-67
2022/08/19 11:37:57;;;;;;;11.77;4.70;;;36.90;45.70;;;;;;4402761;28;655509;-67
2022/08/19 11:40:44;;;;;;;15.43;4.53;;;37.20;46.70;;;;;;4422601;28;654955;-67
2022/08/19 11:43:32;;;;;;;13.30;4.53;;;36.90;46.60;;;;;;4401557;28;655712;-67
2022/08/19 11:46:19;;;;;;;13.00;4.30;;;36.90;46.70;;;;;;4419216;28;655472;-67
2022/08/19 11:49:09;;;;;;;12.15;4.63;;;36.90;45.70;;;;;;4402250;28;655270;-67
2022/08/19 11:51:58;;;;;;;21.00;4.50;;;37.10;46.50;;;;;;4401532;28;655252;-67
2022/08/19 11:54:45;;;;;;;12.82;4.40;;;36.40;44.20;;;;;;4415203;28;655417;-67
2022/08/19 11:57:32;;;;;;;12.53;5.17;;;36.70;47.50;;;;;;4430169;28;656075;-67
2022/08/19 12:00:20;;;;;;;21.23;5.53;;;36.60;45.90;;;;;;4411849;28;655858;-67
2022/08/19 12:03:07;;;;;;;14.57;5.07;;;36.30;48.10;;;;;;4404623;28;656328;-67
2022/08/19 12:05:55;;;;;;;19.88;5.03;;;36.40;47.70;;;;;;4416076;28;655633;-68
2022/08/19 12:08:43;;;;;;;11.23;5.07;;;37.00;45.90;;;;;;4381778;28;655607;-67
2022/08/19 12:11:30;;;;;;;14.82;5.20;;;36.00;47.60;;;;;;4394355;28;655633;-67
2022/08/19 12:14:18;;;;;;;13.93;5.45;;;36.40;49.70;;;;;;4407941;28;655971;-67
2022/08/19 12:17:07;;;;;;;13.98;5.60;;;36.30;48.20;;;;;;4384540;28;655881;-68
2022/08/19 12:19:54;;;;;;;10.60;5.30;;;37.20;49.70;;;;;;4410096;28;655709;-68
2022/08/19 12:22:42;;;;;;;17.42;5.03;;;37.70;49.00;;;;;;4385036;28;655478;-68
2022/08/19 12:25:31;;;;;;;20.10;5.90;;;38.40;47.20;;;;;;4396125;28;655384;-68
2022/08/19 12:28:19;;;;;;;14.27;5.18;;;38.40;46.00;;;;;;4401914;28;656859;-68
2022/08/19 12:31:06;;;;;;;12.23;5.30;;;39.00;44.40;;;;;;4386939;28;655725;-68
2022/08/19 12:33:53;;;;;;;22.48;5.70;;;38.60;42.70;;;;;;4397809;28;656336;-68
2022/08/19 12:36:40;;;;;;;8.07;5.25;;;37.90;46.40;;;;;;4388560;28;655843;-68
2022/08/19 12:39:30;;;;;;;10.35;5.50;;;37.30;45.00;;;;;;4403944;28;655606;-68
2022/08/19 12:42:17;;;;;;;12.10;5.95;;;36.50;47.10;;;;;;4383227;28;656834;-68
2022/08/19 12:45:05;;;;;;;15.82;5.35;;;36.80;47.00;;;;;;4407258;28;655966;-67
2022/08/19 12:47:52;;;;;;;20.80;5.18;;;37.00;46.10;;;;;;4386402;28;656272;-68
2022/08/19 12:50:40;;;;;;;13.05;5.20;;;37.20;45.10;;;;;;4407658;28;656166;-68
2022/08/19 12:53:28;;;;;;;19.92;5.57;;;37.30;47.30;;;;;;4392246;28;655948;-68
2022/08/19 12:56:18;;;;;;;16.38;6.13;;;37.40;46.60;;;;;;4386649;28;655927;-68
2022/08/19 12:59:07;;;;;;;15.50;5.30;;;37.80;45.30;;;;;;4391261;28;655757;-68
2022/08/19 13:01:54;;;;;;;13.35;4.63;;;38.30;49.10;;;;;;4405366;28;655538;-68
2022/08/19 13:04:41;;;;;;;16.13;4.70;;;38.20;42.50;;;;;;4393166;28;655469;-68
2022/08/19 13:07:30;;;;;;;17.77;5.20;;;38.60;44.60;;;;;;4411550;28;656525;-68
2022/08/19 13:10:19;;;;;;;16.85;5.20;;;39.00;43.30;;;;;;4403671;28;656403;-68
2022/08/19 13:13:09;;;;;;;18.02;5.35;;;39.00;41.20;;;;;;4406951;28;655853;-68
2022/08/19 13:16:01;;;;;;;12.07;5.22;;;39.00;42.20;;;;;;4408247;28;655941;-68
2022/08/19 13:18:51;;;;;;;16.70;5.00;;;38.20;44.50;;;;;;4399788;28;656528;-69
2022/08/19 13:21:38;;;;;;;12.27;5.03;;;38.70;43.90;;;;;;4402289;28;656447;-70
2022/08/19 13:24:25;;;;;;;17.10;4.95;;;38.90;44.20;;;;;;4403654;28;655761;-69
2022/08/19 13:27:12;;;;;;;12.10;5.38;;;39.30;41.90;;;;;;4424027;28;656683;-69
2022/08/19 13:33:14;;;;;;;13.45;5.63;;;40.10;40.70;;;;;;4408043;28;655453;-69
2022/08/19 13:36:01;;;;;;;15.90;5.93;;;40.00;40.50;;;;;;4400012;28;655019;-69
2022/08/19 13:38:48;;;;;;;18.50;6.20;;;39.80;40.50;;;;;;4426875;28;656577;-69
2022/08/19 13:41:35;;;;;;;19.42;6.20;;;39.20;42.10;;;;;;4402517;28;655756;-69
2022/08/19 13:44:22;;;;;;;15.13;6.55;;;38.90;43.00;;;;;;4419496;28;656630;-69
2022/08/19 13:47:13;;;;;;;20.30;6.60;;;38.90;43.60;;;;;;4420647;28;655622;-69
2022/08/19 13:50:00;;;;;;;13.30;6.20;;;39.30;42.70;;;;;;4406941;28;656700;-69
2022/08/19 13:52:48;;;;;;;12.80;6.00;;;39.10;42.90;;;;;;4425460;28;655440;-69
2022/08/19 13:55:36;;;;;;;13.80;6.40;;;38.50;43.30;;;;;;4418322;28;656062;-69
2022/08/19 13:58:23;;;;;;;13.13;5.93;;;38.50;43.70;;;;;;4424874;28;655962;-69
2022/08/19 14:01:10;;;;;;;15.60;5.90;;;38.70;43.60;;;;;;4406916;28;655909;-69
2022/08/19 14:03:59;;;;;;;18.52;6.32;;;38.80;43.50;;;;;;4426773;28;655553;-69
2022/08/19 14:06:46;;;;;;;11.10;6.13;;;38.70;42.10;;;;;;4402023;28;655917;-69
2022/08/19 14:09:33;;;;;;;11.20;5.90;;;38.10;43.50;;;;;;4425852;28;656973;-69
2022/08/19 14:12:21;;;;;;;12.85;6.22;;;37.70;44.70;;;;;;4402169;28;655642;-69
2022/08/19 14:15:09;;;;;;;14.70;6.30;;;37.40;45.20;;;;;;4419726;28;656221;-69
2022/08/19 14:17:56;;;;;;;12.95;5.93;;;37.60;46.70;;;;;;4403729;28;655377;-69
2022/08/19 14:20:45;;;;;;;15.23;6.35;;;37.80;44.90;;;;;;4420227;28;656374;-69
2022/08/19 14:23:32;;;;;;;14.55;6.38;;;37.80;44.00;;;;;;4405066;28;656500;-69
2022/08/19 14:26:20;;;;;;;13.98;6.20;;;38.00;45.10;;;;;;4420655;28;655748;-69
2022/08/19 14:29:07;;;;;;;9.70;5.87;;;37.80;46.00;;;;;;4398065;28;656595;-69
2022/08/19 14:31:56;;;;;;;12.10;6.30;;;38.10;44.30;;;;;;4425092;28;654458;-69